Killeen-Fort Hood Regional Airport

Airport
ICAO code: 
KGRK
Summary
ICAO Region: 
NAM
Territory: 
Location: 
Killeen, Texas,
Elevation: 
1015 ft
Coordinates: 
Aerial View: 
31° 3' 42.888" N, 97° 49' 16.559" W
Airport WX: 
Cumulonimbus
Metar
Observation
KGRK 040656Z AUTO 16006KT 10SM CLR 17/16 A2999 RMK AO2 SLP150 T01660156
Station
Fort Hood, Robert Gray AAF Ft Hood
Date/Time
2021-12-04 06:56:00
Wind direction
160°
Wind speed
06 kts
Lowest cloud amount
n/a
Temperature
16.6°C
Dew point
15.6°C
Humidity
93%
Weather condition
n/a

Description

Killeen–Fort Hood Regional Airport, also known as Robert Gray Army Airfield, is a small military/commercial joint-use airport located inside of the Fort Hood Military Reservation, 11 km southwest of the central business district of Killeen, in Bell County, Texas.

Climatology

Humid “subtropical” climate (Köppen climate classification Cfa) - characterized by hot, humid summers and cool winters. Significant amounts of precipitation occur in all seasons in most areas. Winter rainfall (and sometimes snowfall) is associated with large storms that the westerlies steer from west to east. Most summer rainfall occurs during thunderstorms and occasional tropical storms (hurricanes).

Runways

Designator Length Width Surface Rops
15/33 3048 61 PEM Yes/Yes
Airport map: 
Aerial View: 

SKYbrary Partners:

Safety knowledge contributed by: